sensor_id;sensor_type;location;lat;lon;timestamp;P1;durP1;ratioP1;P2;durP2;ratioP2
69392;SDS011;56582;44.624;20.378;2023-05-10T00:00:10;8.40;;;5.55;;
69392;SDS011;56582;44.624;20.378;2023-05-10T00:02:36;8.23;;;5.27;;
69392;SDS011;56582;44.624;20.378;2023-05-10T00:05:01;8.60;;;6.30;;
69392;SDS011;56582;44.624;20.378;2023-05-10T00:07:27;8.83;;;5.17;;
69392;SDS011;56582;44.624;20.378;2023-05-10T00:09:52;7.33;;;5.70;;
69392;SDS011;56582;44.624;20.378;2023-05-10T00:12:17;8.30;;;5.97;;
69392;SDS011;56582;44.624;20.378;2023-05-10T00:14:43;7.68;;;5.60;;
69392;SDS011;56582;44.624;20.378;2023-05-10T00:17:08;7.90;;;6.23;;
69392;SDS011;56582;44.624;20.378;2023-05-10T00:19:34;8.47;;;5.30;;
69392;SDS011;56582;44.624;20.378;2023-05-10T00:21:59;8.90;;;5.35;;
69392;SDS011;56582;44.624;20.378;2023-05-10T00:24:25;9.20;;;5.93;;
69392;SDS011;56582;44.624;20.378;2023-05-10T00:26:50;7.90;;;5.10;;
69392;SDS011;56582;44.624;20.378;2023-05-10T00:29:15;8.30;;;5.87;;
69392;SDS011;56582;44.624;20.378;2023-05-10T00:31:41;10.33;;;6.00;;
69392;SDS011;56582;44.624;20.378;2023-05-10T00:34:06;7.68;;;5.63;;
69392;SDS011;56582;44.624;20.378;2023-05-10T00:36:32;8.33;;;6.13;;
69392;SDS011;56582;44.624;20.378;2023-05-10T00:38:57;8.83;;;5.37;;
69392;SDS011;56582;44.624;20.378;2023-05-10T00:41:23;7.75;;;5.82;;
69392;SDS011;56582;44.624;20.378;2023-05-10T00:43:49;10.20;;;7.30;;
69392;SDS011;56582;44.624;20.378;2023-05-10T00:46:14;8.33;;;5.73;;
69392;SDS011;56582;44.624;20.378;2023-05-10T00:48:40;8.40;;;5.70;;
69392;SDS011;56582;44.624;20.378;2023-05-10T00:51:07;7.60;;;5.70;;
69392;SDS011;56582;44.624;20.378;2023-05-10T00:53:32;8.05;;;5.93;;
69392;SDS011;56582;44.624;20.378;2023-05-10T00:55:59;7.73;;;5.70;;
69392;SDS011;56582;44.624;20.378;2023-05-10T00:58:25;8.13;;;6.10;;
69392;SDS011;56582;44.624;20.378;2023-05-10T01:00:53;8.68;;;6.07;;
69392;SDS011;56582;44.624;20.378;2023-05-10T01:03:21;9.30;;;6.40;;
69392;SDS011;56582;44.624;20.378;2023-05-10T01:05:46;9.25;;;6.93;;
69392;SDS011;56582;44.624;20.378;2023-05-10T01:08:12;7.90;;;6.27;;
69392;SDS011;56582;44.624;20.378;2023-05-10T01:10:37;8.47;;;5.97;;
69392;SDS011;56582;44.624;20.378;2023-05-10T01:13:03;8.13;;;5.40;;
69392;SDS011;56582;44.624;20.378;2023-05-10T01:15:28;9.17;;;5.53;;
69392;SDS011;56582;44.624;20.378;2023-05-10T01:17:55;9.15;;;6.40;;
69392;SDS011;56582;44.624;20.378;2023-05-10T01:20:21;7.35;;;5.65;;
69392;SDS011;56582;44.624;20.378;2023-05-10T01:33:54;8.20;;;5.85;;
69392;SDS011;56582;44.624;20.378;2023-05-10T01:36:30;8.37;;;5.30;;
69392;SDS011;56582;44.624;20.378;2023-05-10T01:39:16;9.15;;;5.78;;
69392;SDS011;56582;44.624;20.378;2023-05-10T01:47:58;9.65;;;5.72;;
69392;SDS011;56582;44.624;20.378;2023-05-10T01:50:27;8.10;;;5.43;;
69392;SDS011;56582;44.624;20.378;2023-05-10T01:52:55;7.40;;;5.90;;
69392;SDS011;56582;44.624;20.378;2023-05-10T01:55:24;7.28;;;4.90;;
69392;SDS011;56582;44.624;20.378;2023-05-10T01:57:55;8.70;;;5.68;;
69392;SDS011;56582;44.624;20.378;2023-05-10T02:00:25;8.60;;;5.53;;
69392;SDS011;56582;44.624;20.378;2023-05-10T02:02:52;8.50;;;5.07;;
69392;SDS011;56582;44.624;20.378;2023-05-10T02:05:20;8.82;;;6.50;;
69392;SDS011;56582;44.624;20.378;2023-05-10T02:07:47;7.53;;;4.75;;
69392;SDS011;56582;44.624;20.378;2023-05-10T02:10:15;6.80;;;5.22;;
69392;SDS011;56582;44.624;20.378;2023-05-10T02:12:42;8.73;;;5.97;;
69392;SDS011;56582;44.624;20.378;2023-05-10T02:15:08;6.97;;;5.07;;
69392;SDS011;56582;44.624;20.378;2023-05-10T02:17:37;7.35;;;5.50;;
69392;SDS011;56582;44.624;20.378;2023-05-10T02:20:03;8.80;;;6.07;;
69392;SDS011;56582;44.624;20.378;2023-05-10T02:22:31;7.93;;;4.90;;
69392;SDS011;56582;44.624;20.378;2023-05-10T02:24:58;9.05;;;6.35;;
69392;SDS011;56582;44.624;20.378;2023-05-10T02:27:25;8.43;;;5.15;;
69392;SDS011;56582;44.624;20.378;2023-05-10T02:29:52;7.03;;;5.90;;
69392;SDS011;56582;44.624;20.378;2023-05-10T02:32:19;9.30;;;5.25;;
69392;SDS011;56582;44.624;20.378;2023-05-10T02:34:46;8.43;;;5.47;;
69392;SDS011;56582;44.624;20.378;2023-05-10T02:37:16;7.90;;;6.00;;
69392;SDS011;56582;44.624;20.378;2023-05-10T02:39:44;7.00;;;5.80;;
69392;SDS011;56582;44.624;20.378;2023-05-10T02:42:18;7.80;;;5.82;;
69392;SDS011;56582;44.624;20.378;2023-05-10T02:44:45;7.75;;;5.38;;
69392;SDS011;56582;44.624;20.378;2023-05-10T02:47:13;6.93;;;6.03;;
69392;SDS011;56582;44.624;20.378;2023-05-10T02:49:38;7.93;;;6.47;;
69392;SDS011;56582;44.624;20.378;2023-05-10T02:52:05;9.00;;;5.57;;
69392;SDS011;56582;44.624;20.378;2023-05-10T02:54:39;7.63;;;5.00;;
69392;SDS011;56582;44.624;20.378;2023-05-10T02:57:08;8.25;;;4.97;;
69392;SDS011;56582;44.624;20.378;2023-05-10T02:59:40;11.50;;;6.63;;
69392;SDS011;56582;44.624;20.378;2023-05-10T03:02:07;7.63;;;5.63;;
69392;SDS011;56582;44.624;20.378;2023-05-10T03:04:34;7.25;;;5.20;;
69392;SDS011;56582;44.624;20.378;2023-05-10T03:07:00;8.20;;;5.20;;
69392;SDS011;56582;44.624;20.378;2023-05-10T03:09:26;7.93;;;6.40;;
69392;SDS011;56582;44.624;20.378;2023-05-10T03:20:25;11.93;;;5.90;;
69392;SDS011;56582;44.624;20.378;2023-05-10T03:23:01;7.20;;;4.95;;
69392;SDS011;56582;44.624;20.378;2023-05-10T03:25:31;14.40;;;6.25;;
69392;SDS011;56582;44.624;20.378;2023-05-10T03:27:57;8.90;;;4.80;;
69392;SDS011;56582;44.624;20.378;2023-05-10T03:30:24;8.30;;;5.32;;
69392;SDS011;56582;44.624;20.378;2023-05-10T03:32:50;9.00;;;5.40;;
69392;SDS011;56582;44.624;20.378;2023-05-10T03:35:15;7.73;;;5.10;;
69392;SDS011;56582;44.624;20.378;2023-05-10T03:37:41;7.63;;;4.80;;
69392;SDS011;56582;44.624;20.378;2023-05-10T03:40:07;6.63;;;4.67;;
69392;SDS011;56582;44.624;20.378;2023-05-10T03:42:33;9.07;;;6.20;;
69392;SDS011;56582;44.624;20.378;2023-05-10T03:44:58;8.33;;;6.23;;
69392;SDS011;56582;44.624;20.378;2023-05-10T03:47:24;7.67;;;5.00;;
69392;SDS011;56582;44.624;20.378;2023-05-10T03:49:50;8.48;;;5.70;;
69392;SDS011;56582;44.624;20.378;2023-05-10T03:52:15;9.47;;;6.27;;
69392;SDS011;56582;44.624;20.378;2023-05-10T03:54:40;8.03;;;5.80;;
69392;SDS011;56582;44.624;20.378;2023-05-10T03:57:06;8.55;;;6.22;;
69392;SDS011;56582;44.624;20.378;2023-05-10T03:59:31;8.37;;;5.50;;
69392;SDS011;56582;44.624;20.378;2023-05-10T04:02:00;7.63;;;5.53;;
69392;SDS011;56582;44.624;20.378;2023-05-10T04:04:26;7.75;;;5.57;;
69392;SDS011;56582;44.624;20.378;2023-05-10T04:06:52;8.10;;;6.10;;
69392;SDS011;56582;44.624;20.378;2023-05-10T04:09:17;8.93;;;6.20;;
69392;SDS011;56582;44.624;20.378;2023-05-10T04:11:43;9.03;;;6.20;;
69392;SDS011;56582;44.624;20.378;2023-05-10T04:14:08;8.00;;;5.50;;
69392;SDS011;56582;44.624;20.378;2023-05-10T04:16:34;9.45;;;6.57;;
69392;SDS011;56582;44.624;20.378;2023-05-10T04:18:59;9.43;;;6.60;;
69392;SDS011;56582;44.624;20.378;2023-05-10T04:21:25;7.63;;;5.53;;
69392;SDS011;56582;44.624;20.378;2023-05-10T04:23:50;8.30;;;5.07;;
69392;SDS011;56582;44.624;20.378;2023-05-10T04:26:16;8.10;;;5.23;;
69392;SDS011;56582;44.624;20.378;2023-05-10T04:28:41;8.60;;;5.33;;
69392;SDS011;56582;44.624;20.378;2023-05-10T04:31:07;8.30;;;5.55;;
69392;SDS011;56582;44.624;20.378;2023-05-10T04:33:34;10.20;;;5.97;;
69392;SDS011;56582;44.624;20.378;2023-05-10T04:36:00;8.95;;;6.30;;
69392;SDS011;56582;44.624;20.378;2023-05-10T04:38:26;8.77;;;6.70;;
69392;SDS011;56582;44.624;20.378;2023-05-10T04:40:52;9.40;;;6.50;;
69392;SDS011;56582;44.624;20.378;2023-05-10T04:43:18;10.05;;;7.30;;
69392;SDS011;56582;44.624;20.378;2023-05-10T04:45:44;9.70;;;6.80;;
69392;SDS011;56582;44.624;20.378;2023-05-10T04:48:09;9.93;;;7.07;;
69392;SDS011;56582;44.624;20.378;2023-05-10T04:50:34;10.57;;;6.53;;
69392;SDS011;56582;44.624;20.378;2023-05-10T04:53:00;16.33;;;9.77;;
69392;SDS011;56582;44.624;20.378;2023-05-10T04:55:25;11.83;;;9.67;;
69392;SDS011;56582;44.624;20.378;2023-05-10T04:57:52;15.30;;;10.13;;
69392;SDS011;56582;44.624;20.378;2023-05-10T05:00:18;9.73;;;7.50;;
69392;SDS011;56582;44.624;20.378;2023-05-10T05:02:47;9.25;;;7.80;;
69392;SDS011;56582;44.624;20.378;2023-05-10T05:05:12;9.30;;;7.27;;
69392;SDS011;56582;44.624;20.378;2023-05-10T05:07:38;9.32;;;7.40;;
69392;SDS011;56582;44.624;20.378;2023-05-10T05:10:07;10.07;;;8.47;;
69392;SDS011;56582;44.624;20.378;2023-05-10T05:12:33;9.45;;;7.50;;
69392;SDS011;56582;44.624;20.378;2023-05-10T05:14:59;8.50;;;6.93;;
69392;SDS011;56582;44.624;20.378;2023-05-10T05:17:25;9.88;;;6.40;;
69392;SDS011;56582;44.624;20.378;2023-05-10T05:19:51;10.52;;;6.72;;
69392;SDS011;56582;44.624;20.378;2023-05-10T05:22:16;9.60;;;6.47;;
69392;SDS011;56582;44.624;20.378;2023-05-10T05:24:42;9.07;;;7.20;;
69392;SDS011;56582;44.624;20.378;2023-05-10T05:27:07;9.40;;;8.20;;
69392;SDS011;56582;44.624;20.378;2023-05-10T05:29:33;9.57;;;6.90;;
69392;SDS011;56582;44.624;20.378;2023-05-10T05:31:58;10.03;;;7.57;;
69392;SDS011;56582;44.624;20.378;2023-05-10T05:34:24;8.55;;;6.93;;
69392;SDS011;56582;44.624;20.378;2023-05-10T05:36:50;8.77;;;7.17;;
69392;SDS011;56582;44.624;20.378;2023-05-10T05:39:15;11.10;;;6.85;;
69392;SDS011;56582;44.624;20.378;2023-05-10T05:41:41;12.23;;;6.60;;
69392;SDS011;56582;44.624;20.378;2023-05-10T05:44:07;9.50;;;6.75;;
69392;SDS011;56582;44.624;20.378;2023-05-10T05:46:32;9.47;;;6.40;;
69392;SDS011;56582;44.624;20.378;2023-05-10T05:48:58;9.07;;;7.22;;
69392;SDS011;56582;44.624;20.378;2023-05-10T05:51:23;10.00;;;7.03;;
69392;SDS011;56582;44.624;20.378;2023-05-10T05:53:49;8.90;;;6.97;;
69392;SDS011;56582;44.624;20.378;2023-05-10T05:56:14;9.93;;;6.53;;
69392;SDS011;56582;44.624;20.378;2023-05-10T05:58:40;11.47;;;8.13;;
69392;SDS011;56582;44.624;20.378;2023-05-10T06:01:05;9.50;;;6.57;;
69392;SDS011;56582;44.624;20.378;2023-05-10T06:03:31;8.60;;;6.78;;
69392;SDS011;56582;44.624;20.378;2023-05-10T06:05:57;9.27;;;6.50;;
69392;SDS011;56582;44.624;20.378;2023-05-10T06:08:22;9.43;;;6.47;;
69392;SDS011;56582;44.624;20.378;2023-05-10T06:10:48;9.00;;;7.13;;
69392;SDS011;56582;44.624;20.378;2023-05-10T06:13:13;9.00;;;6.40;;
69392;SDS011;56582;44.624;20.378;2023-05-10T06:15:39;8.87;;;5.80;;
69392;SDS011;56582;44.624;20.378;2023-05-10T06:18:05;8.53;;;6.60;;
69392;SDS011;56582;44.624;20.378;2023-05-10T06:20:31;11.50;;;7.75;;
69392;SDS011;56582;44.624;20.378;2023-05-10T06:22:56;9.50;;;6.60;;
69392;SDS011;56582;44.624;20.378;2023-05-10T06:25:22;9.45;;;6.20;;
69392;SDS011;56582;44.624;20.378;2023-05-10T06:27:48;9.30;;;7.75;;
69392;SDS011;56582;44.624;20.378;2023-05-10T06:30:13;8.00;;;6.23;;
69392;SDS011;56582;44.624;20.378;2023-05-10T06:32:39;9.02;;;6.30;;
69392;SDS011;56582;44.624;20.378;2023-05-10T06:35:05;8.30;;;5.63;;
69392;SDS011;56582;44.624;20.378;2023-05-10T06:37:31;7.82;;;6.07;;
69392;SDS011;56582;44.624;20.378;2023-05-10T06:39:56;7.97;;;5.87;;
69392;SDS011;56582;44.624;20.378;2023-05-10T06:42:22;7.80;;;5.80;;
69392;SDS011;56582;44.624;20.378;2023-05-10T06:44:50;8.25;;;5.70;;
69392;SDS011;56582;44.624;20.378;2023-05-10T06:47:15;8.00;;;5.65;;
69392;SDS011;56582;44.624;20.378;2023-05-10T06:49:41;10.17;;;6.93;;
69392;SDS011;56582;44.624;20.378;2023-05-10T06:52:06;11.03;;;7.23;;
69392;SDS011;56582;44.624;20.378;2023-05-10T06:54:32;7.90;;;5.82;;
69392;SDS011;56582;44.624;20.378;2023-05-10T06:56:58;14.13;;;8.70;;
69392;SDS011;56582;44.624;20.378;2023-05-10T06:59:23;13.87;;;9.20;;
69392;SDS011;56582;44.624;20.378;2023-05-10T07:01:49;12.45;;;9.35;;
69392;SDS011;56582;44.624;20.378;2023-05-10T07:04:14;10.13;;;6.47;;
69392;SDS011;56582;44.624;20.378;2023-05-10T07:17:49;8.00;;;7.10;;
69392;SDS011;56582;44.624;20.378;2023-05-10T07:20:14;7.40;;;6.50;;
69392;SDS011;56582;44.624;20.378;2023-05-10T07:22:40;8.25;;;7.18;;
69392;SDS011;56582;44.624;20.378;2023-05-10T07:25:05;8.67;;;7.00;;
69392;SDS011;56582;44.624;20.378;2023-05-10T07:27:31;8.00;;;6.82;;
69392;SDS011;56582;44.624;20.378;2023-05-10T07:29:57;9.30;;;6.43;;
69392;SDS011;56582;44.624;20.378;2023-05-10T07:32:23;10.43;;;8.47;;
69392;SDS011;56582;44.624;20.378;2023-05-10T07:34:49;8.43;;;7.22;;
69392;SDS011;56582;44.624;20.378;2023-05-10T07:37:14;8.70;;;6.60;;
69392;SDS011;56582;44.624;20.378;2023-05-10T07:39:39;7.97;;;6.07;;
69392;SDS011;56582;44.624;20.378;2023-05-10T07:42:05;7.63;;;5.90;;
69392;SDS011;56582;44.624;20.378;2023-05-10T07:44:31;8.53;;;6.33;;
69392;SDS011;56582;44.624;20.378;2023-05-10T07:46:56;6.50;;;5.07;;
69392;SDS011;56582;44.624;20.378;2023-05-10T07:49:21;6.63;;;5.80;;
69392;SDS011;56582;44.624;20.378;2023-05-10T07:51:49;8.65;;;7.13;;
69392;SDS011;56582;44.624;20.378;2023-05-10T07:54:15;7.25;;;5.90;;
69392;SDS011;56582;44.624;20.378;2023-05-10T07:56:40;8.77;;;6.87;;
69392;SDS011;56582;44.624;20.378;2023-05-10T07:59:13;7.00;;;5.82;;
69392;SDS011;56582;44.624;20.378;2023-05-10T08:01:40;6.93;;;5.43;;
69392;SDS011;56582;44.624;20.378;2023-05-10T08:04:07;7.63;;;4.93;;
69392;SDS011;56582;44.624;20.378;2023-05-10T08:06:32;7.75;;;4.65;;
69392;SDS011;56582;44.624;20.378;2023-05-10T08:08:57;6.17;;;4.10;;
69392;SDS011;56582;44.624;20.378;2023-05-10T08:11:23;7.33;;;5.13;;
69392;SDS011;56582;44.624;20.378;2023-05-10T08:13:49;7.27;;;4.50;;
69392;SDS011;56582;44.624;20.378;2023-05-10T08:16:15;8.65;;;6.13;;
69392;SDS011;56582;44.624;20.378;2023-05-10T08:18:43;6.53;;;4.35;;
69392;SDS011;56582;44.624;20.378;2023-05-10T08:21:10;7.50;;;5.57;;
69392;SDS011;56582;44.624;20.378;2023-05-10T08:23:38;6.68;;;5.55;;
69392;SDS011;56582;44.624;20.378;2023-05-10T08:26:04;6.70;;;5.53;;
69392;SDS011;56582;44.624;20.378;2023-05-10T08:28:30;7.40;;;5.45;;
69392;SDS011;56582;44.624;20.378;2023-05-10T08:30:55;6.40;;;4.70;;
69392;SDS011;56582;44.624;20.378;2023-05-10T08:33:21;5.73;;;4.90;;
69392;SDS011;56582;44.624;20.378;2023-05-10T08:35:46;11.45;;;7.22;;
69392;SDS011;56582;44.624;20.378;2023-05-10T08:38:12;5.83;;;3.70;;
69392;SDS011;56582;44.624;20.378;2023-05-10T08:40:37;8.85;;;4.25;;
69392;SDS011;56582;44.624;20.378;2023-05-10T08:43:05;6.00;;;5.20;;
69392;SDS011;56582;44.624;20.378;2023-05-10T08:45:35;5.55;;;4.00;;
69392;SDS011;56582;44.624;20.378;2023-05-10T08:48:06;6.78;;;5.32;;
69392;SDS011;56582;44.624;20.378;2023-05-10T08:50:33;6.28;;;4.72;;
69392;SDS011;56582;44.624;20.378;2023-05-10T08:53:10;7.05;;;5.22;;
69392;SDS011;56582;44.624;20.378;2023-05-10T08:55:38;7.50;;;4.50;;
69392;SDS011;56582;44.624;20.378;2023-05-10T08:58:05;7.60;;;5.05;;
69392;SDS011;56582;44.624;20.378;2023-05-10T09:00:31;8.35;;;5.07;;
69392;SDS011;56582;44.624;20.378;2023-05-10T09:02:57;8.20;;;5.50;;
69392;SDS011;56582;44.624;20.378;2023-05-10T09:05:23;9.23;;;6.40;;
69392;SDS011;56582;44.624;20.378;2023-05-10T09:07:49;10.63;;;7.67;;
69392;SDS011;56582;44.624;20.378;2023-05-10T09:10:14;7.27;;;5.97;;
69392;SDS011;56582;44.624;20.378;2023-05-10T09:12:40;5.78;;;4.40;;
69392;SDS011;56582;44.624;20.378;2023-05-10T09:15:06;9.07;;;5.10;;
69392;SDS011;56582;44.624;20.378;2023-05-10T09:17:34;5.55;;;3.85;;
69392;SDS011;56582;44.624;20.378;2023-05-10T09:20:00;5.95;;;3.92;;
69392;SDS011;56582;44.624;20.378;2023-05-10T09:22:27;6.75;;;4.82;;
69392;SDS011;56582;44.624;20.378;2023-05-10T09:25:05;5.73;;;4.43;;
69392;SDS011;56582;44.624;20.378;2023-05-10T09:27:36;5.88;;;4.72;;
69392;SDS011;56582;44.624;20.378;2023-05-10T09:30:03;6.80;;;4.50;;
69392;SDS011;56582;44.624;20.378;2023-05-10T09:35:14;6.35;;;4.88;;
69392;SDS011;56582;44.624;20.378;2023-05-10T09:37:48;8.25;;;5.05;;
69392;SDS011;56582;44.624;20.378;2023-05-10T09:40:16;4.97;;;3.40;;
69392;SDS011;56582;44.624;20.378;2023-05-10T09:42:43;5.13;;;4.10;;
69392;SDS011;56582;44.624;20.378;2023-05-10T09:45:19;6.30;;;4.63;;
69392;SDS011;56582;44.624;20.378;2023-05-10T09:47:46;7.45;;;5.22;;
69392;SDS011;56582;44.624;20.378;2023-05-10T09:50:12;5.68;;;4.30;;
69392;SDS011;56582;44.624;20.378;2023-05-10T09:52:57;6.40;;;4.20;;
69392;SDS011;56582;44.624;20.378;2023-05-10T09:55:25;7.10;;;5.70;;
69392;SDS011;56582;44.624;20.378;2023-05-10T09:57:59;6.53;;;5.05;;
69392;SDS011;56582;44.624;20.378;2023-05-10T10:00:26;5.85;;;4.78;;
69392;SDS011;56582;44.624;20.378;2023-05-10T10:02:55;5.20;;;4.70;;
69392;SDS011;56582;44.624;20.378;2023-05-10T10:05:27;6.40;;;5.13;;
69392;SDS011;56582;44.624;20.378;2023-05-10T10:07:53;5.03;;;4.13;;
69392;SDS011;56582;44.624;20.378;2023-05-10T10:10:20;7.20;;;5.60;;
69392;SDS011;56582;44.624;20.378;2023-05-10T10:12:46;6.60;;;3.73;;
69392;SDS011;56582;44.624;20.378;2023-05-10T10:15:11;6.70;;;4.32;;
69392;SDS011;56582;44.624;20.378;2023-05-10T10:17:37;6.23;;;4.63;;
69392;SDS011;56582;44.624;20.378;2023-05-10T10:20:05;7.20;;;4.43;;
69392;SDS011;56582;44.624;20.378;2023-05-10T10:22:31;5.95;;;4.13;;
69392;SDS011;56582;44.624;20.378;2023-05-10T10:24:57;7.50;;;4.67;;
69392;SDS011;56582;44.624;20.378;2023-05-10T10:27:34;6.57;;;4.80;;
69392;SDS011;56582;44.624;20.378;2023-05-10T10:35:40;6.07;;;4.30;;
69392;SDS011;56582;44.624;20.378;2023-05-10T10:38:07;5.80;;;5.20;;
69392;SDS011;56582;44.624;20.378;2023-05-10T10:40:34;5.95;;;3.85;;
69392;SDS011;56582;44.624;20.378;2023-05-10T10:48:34;6.63;;;4.20;;
69392;SDS011;56582;44.624;20.378;2023-05-10T10:50:59;6.57;;;4.27;;
69392;SDS011;56582;44.624;20.378;2023-05-10T10:53:26;7.43;;;4.05;;
69392;SDS011;56582;44.624;20.378;2023-05-10T10:56:02;7.80;;;4.88;;
69392;SDS011;56582;44.624;20.378;2023-05-10T10:58:32;7.13;;;5.07;;
69392;SDS011;56582;44.624;20.378;2023-05-10T11:01:17;5.38;;;4.35;;
69392;SDS011;56582;44.624;20.378;2023-05-10T11:08:59;5.55;;;3.70;;
69392;SDS011;56582;44.624;20.378;2023-05-10T11:11:31;5.63;;;4.30;;
69392;SDS011;56582;44.624;20.378;2023-05-10T11:14:02;8.20;;;4.65;;
69392;SDS011;56582;44.624;20.378;2023-05-10T11:16:28;5.93;;;4.85;;
69392;SDS011;56582;44.624;20.378;2023-05-10T11:19:13;8.30;;;6.77;;
69392;SDS011;56582;44.624;20.378;2023-05-10T11:24:30;8.20;;;5.55;;
69392;SDS011;56582;44.624;20.378;2023-05-10T11:26:56;11.23;;;8.23;;
69392;SDS011;56582;44.624;20.378;2023-05-10T11:29:21;6.85;;;4.03;;
69392;SDS011;56582;44.624;20.378;2023-05-10T11:31:48;6.27;;;4.53;;
69392;SDS011;56582;44.624;20.378;2023-05-10T11:34:27;5.23;;;3.90;;
69392;SDS011;56582;44.624;20.378;2023-05-10T11:37:00;5.00;;;3.88;;
69392;SDS011;56582;44.624;20.378;2023-05-10T11:39:26;6.65;;;5.15;;
69392;SDS011;56582;44.624;20.378;2023-05-10T11:41:53;5.78;;;5.18;;
69392;SDS011;56582;44.624;20.378;2023-05-10T11:44:19;6.38;;;4.65;;
69392;SDS011;56582;44.624;20.378;2023-05-10T11:46:45;5.73;;;4.63;;
69392;SDS011;56582;44.624;20.378;2023-05-10T11:49:10;6.63;;;4.87;;
69392;SDS011;56582;44.624;20.378;2023-05-10T11:51:36;6.05;;;5.07;;
69392;SDS011;56582;44.624;20.378;2023-05-10T11:54:05;7.20;;;4.17;;
69392;SDS011;56582;44.624;20.378;2023-05-10T11:56:38;7.10;;;4.65;;
69392;SDS011;56582;44.624;20.378;2023-05-10T11:59:04;6.03;;;5.35;;
69392;SDS011;56582;44.624;20.378;2023-05-10T12:01:30;5.25;;;3.97;;
69392;SDS011;56582;44.624;20.378;2023-05-10T12:03:56;8.60;;;4.37;;
69392;SDS011;56582;44.624;20.378;2023-05-10T12:06:28;5.13;;;4.28;;
69392;SDS011;56582;44.624;20.378;2023-05-10T12:08:56;7.13;;;5.18;;
69392;SDS011;56582;44.624;20.378;2023-05-10T12:11:24;11.00;;;6.30;;
69392;SDS011;56582;44.624;20.378;2023-05-10T12:13:50;9.23;;;6.22;;
69392;SDS011;56582;44.624;20.378;2023-05-10T12:16:16;5.80;;;4.90;;
69392;SDS011;56582;44.624;20.378;2023-05-10T12:18:42;6.00;;;5.00;;
69392;SDS011;56582;44.624;20.378;2023-05-10T12:21:09;6.93;;;4.37;;
69392;SDS011;56582;44.624;20.378;2023-05-10T12:23:36;5.38;;;4.78;;
69392;SDS011;56582;44.624;20.378;2023-05-10T12:26:02;6.53;;;4.50;;
69392;SDS011;56582;44.624;20.378;2023-05-10T12:28:31;5.43;;;4.22;;
69392;SDS011;56582;44.624;20.378;2023-05-10T12:30:58;8.20;;;4.68;;
69392;SDS011;56582;44.624;20.378;2023-05-10T12:33:24;5.05;;;3.50;;
69392;SDS011;56582;44.624;20.378;2023-05-10T12:35:50;6.33;;;4.17;;
69392;SDS011;56582;44.624;20.378;2023-05-10T12:38:27;6.50;;;4.60;;
69392;SDS011;56582;44.624;20.378;2023-05-10T12:41:00;5.95;;;4.25;;
69392;SDS011;56582;44.624;20.378;2023-05-10T12:43:27;7.95;;;5.15;;
69392;SDS011;56582;44.624;20.378;2023-05-10T12:45:52;7.50;;;4.13;;
69392;SDS011;56582;44.624;20.378;2023-05-10T12:48:18;7.27;;;4.90;;
69392;SDS011;56582;44.624;20.378;2023-05-10T12:50:44;5.97;;;4.38;;
69392;SDS011;56582;44.624;20.378;2023-05-10T12:53:09;5.47;;;4.63;;
69392;SDS011;56582;44.624;20.378;2023-05-10T12:55:35;6.53;;;4.53;;
69392;SDS011;56582;44.624;20.378;2023-05-10T12:58:00;5.60;;;4.03;;
69392;SDS011;56582;44.624;20.378;2023-05-10T13:00:25;6.33;;;4.77;;
69392;SDS011;56582;44.624;20.378;2023-05-10T13:02:51;6.57;;;3.80;;
69392;SDS011;56582;44.624;20.378;2023-05-10T13:05:17;5.80;;;4.13;;
69392;SDS011;56582;44.624;20.378;2023-05-10T13:07:42;5.03;;;3.73;;
69392;SDS011;56582;44.624;20.378;2023-05-10T13:10:09;6.15;;;4.35;;
69392;SDS011;56582;44.624;20.378;2023-05-10T13:12:35;5.35;;;4.00;;
69392;SDS011;56582;44.624;20.378;2023-05-10T13:15:00;4.80;;;4.03;;
69392;SDS011;56582;44.624;20.378;2023-05-10T13:17:26;6.30;;;4.63;;
69392;SDS011;56582;44.624;20.378;2023-05-10T13:19:52;5.67;;;3.90;;
69392;SDS011;56582;44.624;20.378;2023-05-10T13:22:17;5.82;;;3.25;;
69392;SDS011;56582;44.624;20.378;2023-05-10T13:24:43;5.80;;;3.80;;
69392;SDS011;56582;44.624;20.378;2023-05-10T13:27:08;6.83;;;4.70;;
69392;SDS011;56582;44.624;20.378;2023-05-10T13:29:33;5.43;;;3.90;;
69392;SDS011;56582;44.624;20.378;2023-05-10T13:31:59;5.43;;;4.40;;
69392;SDS011;56582;44.624;20.378;2023-05-10T13:34:25;5.60;;;4.17;;
69392;SDS011;56582;44.624;20.378;2023-05-10T13:36:50;4.93;;;3.33;;
69392;SDS011;56582;44.624;20.378;2023-05-10T13:39:16;6.22;;;4.43;;
69392;SDS011;56582;44.624;20.378;2023-05-10T13:41:41;6.30;;;3.40;;
69392;SDS011;56582;44.624;20.378;2023-05-10T13:44:11;5.50;;;3.70;;
69392;SDS011;56582;44.624;20.378;2023-05-10T13:46:37;6.32;;;3.95;;
69392;SDS011;56582;44.624;20.378;2023-05-10T13:49:03;8.38;;;4.50;;
69392;SDS011;56582;44.624;20.378;2023-05-10T13:51:29;10.90;;;5.40;;
69392;SDS011;56582;44.624;20.378;2023-05-10T13:53:54;8.23;;;5.03;;
69392;SDS011;56582;44.624;20.378;2023-05-10T13:56:20;5.10;;;3.95;;
69392;SDS011;56582;44.624;20.378;2023-05-10T13:58:45;5.80;;;3.83;;
69392;SDS011;56582;44.624;20.378;2023-05-10T14:01:11;6.25;;;3.95;;
69392;SDS011;56582;44.624;20.378;2023-05-10T14:03:37;5.70;;;4.17;;
69392;SDS011;56582;44.624;20.378;2023-05-10T14:06:02;6.63;;;4.70;;
69392;SDS011;56582;44.624;20.378;2023-05-10T14:08:28;5.97;;;4.13;;
69392;SDS011;56582;44.624;20.378;2023-05-10T14:10:53;5.47;;;4.10;;
69392;SDS011;56582;44.624;20.378;2023-05-10T14:13:21;6.70;;;3.80;;
69392;SDS011;56582;44.624;20.378;2023-05-10T14:15:46;4.37;;;3.50;;
69392;SDS011;56582;44.624;20.378;2023-05-10T14:18:12;6.40;;;4.40;;
69392;SDS011;56582;44.624;20.378;2023-05-10T14:20:37;5.10;;;3.37;;
69392;SDS011;56582;44.624;20.378;2023-05-10T14:23:03;5.67;;;4.00;;
69392;SDS011;56582;44.624;20.378;2023-05-10T14:25:28;5.00;;;3.70;;
69392;SDS011;56582;44.624;20.378;2023-05-10T14:27:53;5.60;;;4.30;;
69392;SDS011;56582;44.624;20.378;2023-05-10T14:30:19;4.70;;;3.37;;
69392;SDS011;56582;44.624;20.378;2023-05-10T14:32:45;5.45;;;3.63;;
69392;SDS011;56582;44.624;20.378;2023-05-10T14:35:11;5.47;;;4.20;;
69392;SDS011;56582;44.624;20.378;2023-05-10T14:37:37;4.88;;;3.50;;
69392;SDS011;56582;44.624;20.378;2023-05-10T14:40:03;6.30;;;3.53;;
69392;SDS011;56582;44.624;20.378;2023-05-10T14:42:29;4.80;;;4.30;;
69392;SDS011;56582;44.624;20.378;2023-05-10T14:44:56;5.38;;;4.05;;
69392;SDS011;56582;44.624;20.378;2023-05-10T14:47:22;5.85;;;3.28;;
69392;SDS011;56582;44.624;20.378;2023-05-10T14:49:47;4.93;;;3.50;;
69392;SDS011;56582;44.624;20.378;2023-05-10T14:52:12;4.40;;;3.37;;
69392;SDS011;56582;44.624;20.378;2023-05-10T14:54:39;5.47;;;3.58;;
69392;SDS011;56582;44.624;20.378;2023-05-10T14:57:05;4.82;;;3.28;;
69392;SDS011;56582;44.624;20.378;2023-05-10T14:59:31;5.40;;;3.55;;
69392;SDS011;56582;44.624;20.378;2023-05-10T15:01:56;6.30;;;3.67;;
69392;SDS011;56582;44.624;20.378;2023-05-10T15:04:22;6.00;;;4.17;;
69392;SDS011;56582;44.624;20.378;2023-05-10T15:06:47;8.20;;;4.77;;
69392;SDS011;56582;44.624;20.378;2023-05-10T15:09:13;5.78;;;3.72;;
69392;SDS011;56582;44.624;20.378;2023-05-10T15:11:38;5.60;;;4.67;;
69392;SDS011;56582;44.624;20.378;2023-05-10T15:14:04;6.57;;;4.73;;
69392;SDS011;56582;44.624;20.378;2023-05-10T15:16:29;6.13;;;4.97;;
69392;SDS011;56582;44.624;20.378;2023-05-10T15:18:55;5.90;;;3.60;;
69392;SDS011;56582;44.624;20.378;2023-05-10T15:21:20;7.83;;;3.40;;
69392;SDS011;56582;44.624;20.378;2023-05-10T15:23:46;6.00;;;3.40;;
69392;SDS011;56582;44.624;20.378;2023-05-10T15:26:11;5.63;;;3.47;;
69392;SDS011;56582;44.624;20.378;2023-05-10T15:28:37;5.37;;;2.80;;